createdAt,value
2024-03-20T00:02:43.783Z,61.05
2024-03-20T00:05:41.068Z,61.14
2024-03-20T00:08:38.196Z,61.22
2024-03-20T00:11:36.822Z,61.32
2024-03-20T00:14:35.032Z,61.40
2024-03-20T00:17:32.443Z,61.50
2024-03-20T00:20:29.583Z,61.63
2024-03-20T00:23:27.055Z,61.75
2024-03-20T00:26:24.410Z,61.90
2024-03-20T00:29:22.076Z,62.06
2024-03-20T00:32:19.480Z,62.17
2024-03-20T00:35:16.621Z,62.19
2024-03-20T00:38:14.058Z,62.28
2024-03-20T00:41:11.197Z,62.34
2024-03-20T00:44:08.513Z,62.41
2024-03-20T00:47:06.289Z,62.43
2024-03-20T00:50:03.518Z,62.44
2024-03-20T00:53:01.050Z,62.50
2024-03-20T00:55:58.218Z,62.49
2024-03-20T00:58:55.572Z,62.50
2024-03-20T01:01:52.698Z,62.43
2024-03-20T01:04:50.165Z,62.48
2024-03-20T01:07:47.340Z,62.55
2024-03-20T01:10:44.781Z,62.52
2024-03-20T01:13:41.912Z,62.59
2024-03-20T01:16:39.282Z,62.74
2024-03-20T01:19:36.598Z,62.72
2024-03-20T01:22:33.762Z,62.78
2024-03-20T01:25:31.144Z,62.82
2024-03-20T01:28:28.924Z,62.91
2024-03-20T01:31:26.384Z,63.04
2024-03-20T01:34:23.509Z,63.10
2024-03-20T01:37:21.004Z,63.18
2024-03-20T01:40:18.207Z,63.28
2024-03-20T01:43:15.616Z,63.38
2024-03-20T01:46:12.768Z,63.50
2024-03-20T01:49:10.058Z,63.52
2024-03-20T01:52:07.197Z,63.50
2024-03-20T01:55:04.642Z,63.49
2024-03-20T01:58:01.768Z,63.50
2024-03-20T02:00:59.088Z,63.55
2024-03-20T02:03:58.733Z,63.62
2024-03-20T02:06:56.110Z,63.70
2024-03-20T02:09:53.569Z,63.70
2024-03-20T02:12:51.024Z,63.69
2024-03-20T02:15:48.140Z,63.79
2024-03-20T02:18:45.425Z,63.86
2024-03-20T02:21:42.793Z,63.90
2024-03-20T02:24:39.948Z,63.93
2024-03-20T02:27:37.518Z,64.03
2024-03-20T02:30:35.405Z,64.02
2024-03-20T02:33:32.787Z,63.99
2024-03-20T02:36:29.931Z,64.00
2024-03-20T02:39:27.403Z,63.94
2024-03-20T02:42:24.946Z,64.00
2024-03-20T02:45:22.388Z,63.94
2024-03-20T02:48:19.510Z,63.87
2024-03-20T02:51:16.842Z,63.75
2024-03-20T02:54:13.974Z,63.71
2024-03-20T02:57:11.398Z,63.76
2024-03-20T03:00:08.775Z,63.90
2024-03-20T03:03:06.223Z,64.03
2024-03-20T03:06:04.663Z,64.03
2024-03-20T03:09:02.017Z,64.11
2024-03-20T03:11:59.152Z,64.14
2024-03-20T03:15:02.440Z,64.22
2024-03-20T03:18:04.815Z,64.30
2024-03-20T03:21:01.967Z,64.34
2024-03-20T03:23:59.298Z,64.44
2024-03-20T03:26:56.768Z,64.54
2024-03-20T03:29:53.890Z,64.62
2024-03-20T03:32:52.284Z,64.65
2024-03-20T03:35:49.385Z,64.85
2024-03-20T03:38:46.791Z,64.94
2024-03-20T03:41:43.934Z,65.04
2024-03-20T03:44:41.303Z,65.12
2024-03-20T03:47:38.755Z,65.28
2024-03-20T03:50:36.127Z,65.52
2024-03-20T03:53:33.236Z,65.64
2024-03-20T03:56:30.628Z,65.68
2024-03-20T03:59:27.729Z,65.67
2024-03-20T04:02:25.560Z,65.72
2024-03-20T04:05:22.989Z,65.82
2024-03-20T04:08:20.111Z,65.90
2024-03-20T04:11:21.992Z,65.97
2024-03-20T04:14:19.103Z,66.05
2024-03-20T04:17:16.558Z,66.10
2024-03-20T04:20:13.696Z,66.15
2024-03-20T04:23:12.979Z,66.17
2024-03-20T04:26:11.899Z,66.32
2024-03-20T04:29:09.552Z,66.47
2024-03-20T04:32:07.003Z,66.57
2024-03-20T04:35:04.122Z,66.61
2024-03-20T04:38:01.642Z,66.64
2024-03-20T04:40:58.761Z,66.76
2024-03-20T04:43:56.236Z,66.95
2024-03-20T04:46:53.374Z,67.10
2024-03-20T04:49:50.857Z,67.20
2024-03-20T04:52:48.006Z,67.27
2024-03-20T04:55:45.381Z,67.25
2024-03-20T04:58:42.522Z,67.20
2024-03-20T05:01:41.626Z,67.20
2024-03-20T05:04:39.154Z,67.22
2024-03-20T05:07:39.110Z,67.30
2024-03-20T05:10:37.858Z,67.30
2024-03-20T05:13:35.216Z,67.29
2024-03-20T05:16:32.623Z,67.32
2024-03-20T05:19:30.069Z,67.32
2024-03-20T05:22:27.525Z,67.30
2024-03-20T05:25:24.991Z,67.30
2024-03-20T05:28:22.465Z,67.30
2024-03-20T05:31:19.920Z,67.43
2024-03-20T05:34:17.060Z,67.50
2024-03-20T05:37:14.506Z,67.52
2024-03-20T05:40:11.634Z,67.61
2024-03-20T05:43:09.131Z,67.67
2024-03-20T05:46:06.250Z,67.69
2024-03-20T05:49:03.556Z,67.68
2024-03-20T05:52:00.728Z,67.74
2024-03-20T05:54:58.642Z,67.82
2024-03-20T05:57:55.801Z,67.82
2024-03-20T06:00:53.489Z,67.74
2024-03-20T06:03:50.652Z,67.58
2024-03-20T06:06:48.115Z,67.39
2024-03-20T06:09:45.319Z,67.16
2024-03-20T06:12:43.679Z,66.86
2024-03-20T06:15:40.818Z,66.37
2024-03-20T06:18:38.240Z,65.77
2024-03-20T06:21:35.394Z,65.12
2024-03-20T06:24:32.869Z,64.37
2024-03-20T06:27:30.075Z,63.62
2024-03-20T06:30:27.596Z,62.76
2024-03-20T06:33:24.799Z,61.78
2024-03-20T06:36:22.218Z,60.68
2024-03-20T06:39:19.398Z,59.47
2024-03-20T06:42:21.813Z,58.14
2024-03-20T06:45:19.016Z,56.61
2024-03-20T06:48:17.161Z,55.21
2024-03-20T06:51:16.573Z,53.96
2024-03-20T06:54:17.828Z,53.28
2024-03-20T06:57:14.956Z,51.10
2024-03-20T07:00:18.391Z,47.99
2024-03-20T07:03:16.022Z,45.38
2024-03-20T07:06:13.383Z,43.13
2024-03-20T07:09:10.484Z,41.64
2024-03-20T07:12:07.883Z,40.18
2024-03-20T07:15:05.174Z,38.94
2024-03-20T07:18:02.489Z,38.06
2024-03-20T07:20:59.637Z,37.18
2024-03-20T07:23:56.937Z,37.03
2024-03-20T07:26:54.060Z,36.91
2024-03-20T07:29:51.437Z,36.88
2024-03-20T07:32:48.989Z,36.21
2024-03-20T07:35:47.846Z,35.28
2024-03-20T07:38:44.997Z,34.78
2024-03-20T07:41:42.994Z,34.02
2024-03-20T07:44:40.115Z,33.31
2024-03-20T07:47:37.413Z,32.67
2024-03-20T07:50:34.568Z,31.82
2024-03-20T07:53:31.920Z,30.84
2024-03-20T07:56:29.154Z,30.06
2024-03-20T07:59:26.695Z,30.45
2024-03-20T08:02:23.974Z,30.47
2024-03-20T08:05:21.372Z,29.66
2024-03-20T08:08:18.561Z,28.69
2024-03-20T08:11:15.934Z,27.33
2024-03-20T08:14:14.574Z,26.04
2024-03-20T08:17:11.922Z,24.85
2024-03-20T08:20:13.799Z,23.48
2024-03-20T08:23:11.878Z,22.68
2024-03-20T08:26:09.687Z,21.16
2024-03-20T08:29:07.228Z,20.80
2024-03-20T08:32:06.295Z,20.25
2024-03-20T08:35:04.486Z,19.88
2024-03-20T08:38:02.199Z,19.47
2024-03-20T08:40:59.553Z,18.58
2024-03-20T08:43:57.069Z,18.38
2024-03-20T08:46:54.228Z,17.79
2024-03-20T08:49:51.613Z,17.77
2024-03-20T08:52:48.802Z,17.62
2024-03-20T08:55:47.101Z,17.22
2024-03-20T08:58:44.255Z,17.02
2024-03-20T09:01:41.598Z,16.66
2024-03-20T09:04:38.765Z,16.73
2024-03-20T09:07:36.113Z,16.33
2024-03-20T09:10:33.237Z,16.04
2024-03-20T09:13:32.505Z,15.90
2024-03-20T09:16:30.134Z,15.55
2024-03-20T09:19:27.577Z,15.54
2024-03-20T09:22:24.833Z,15.92
2024-03-20T09:25:23.326Z,15.75
2024-03-20T09:28:20.491Z,15.68
2024-03-20T09:31:18.049Z,15.57
2024-03-20T09:34:15.188Z,15.67
2024-03-20T09:37:13.618Z,15.59
2024-03-20T09:40:11.728Z,15.82
2024-03-20T09:43:09.447Z,15.71
2024-03-20T09:46:06.599Z,15.32
2024-03-20T09:49:04.143Z,14.98
2024-03-20T09:52:01.650Z,14.97
2024-03-20T09:54:58.875Z,15.14
2024-03-20T09:57:59.153Z,15.35
2024-03-20T10:00:57.306Z,15.21
2024-03-20T10:03:55.979Z,15.21
2024-03-20T10:06:53.137Z,15.42
2024-03-20T10:09:50.660Z,15.13
2024-03-20T10:12:47.783Z,15.13
2024-03-20T10:15:45.377Z,15.28
2024-03-20T10:18:43.391Z,15.23
2024-03-20T10:21:41.098Z,15.20
2024-03-20T10:24:38.313Z,15.29
2024-03-20T10:27:35.940Z,14.97
2024-03-20T10:30:33.112Z,14.77
2024-03-20T10:33:30.728Z,14.40
2024-03-20T10:36:27.913Z,14.56
2024-03-20T10:39:26.031Z,14.38
2024-03-20T10:42:23.310Z,14.41
2024-03-20T10:45:20.996Z,14.29
2024-03-20T10:48:18.156Z,14.38
2024-03-20T10:51:16.025Z,14.18
2024-03-20T10:54:13.278Z,14.22
2024-03-20T10:57:12.069Z,14.39
2024-03-20T11:00:10.368Z,14.27
2024-03-20T11:03:08.110Z,14.04
2024-03-20T11:06:05.274Z,13.99
2024-03-20T11:09:02.757Z,14.14
2024-03-20T11:12:00.354Z,14.04
2024-03-20T11:14:57.518Z,13.92
2024-03-20T11:17:54.649Z,13.90
2024-03-20T11:20:52.294Z,14.00
2024-03-20T11:23:49.449Z,14.07
2024-03-20T11:26:46.904Z,13.98
2024-03-20T11:29:44.077Z,14.02
2024-03-20T11:32:41.684Z,14.05
2024-03-20T11:35:38.837Z,13.93
2024-03-20T11:38:39.863Z,13.85
2024-03-20T11:41:39.381Z,14.04
2024-03-20T11:44:37.332Z,14.18
2024-03-20T11:47:34.619Z,14.28
2024-03-20T11:50:32.912Z,14.27
2024-03-20T11:53:30.136Z,14.40
2024-03-20T11:56:27.810Z,14.13
2024-03-20T11:59:25.328Z,13.85
2024-03-20T12:02:23.453Z,13.91
2024-03-20T12:05:25.790Z,14.02
2024-03-20T12:08:23.593Z,14.04
2024-03-20T12:11:20.770Z,13.87
2024-03-20T12:14:18.347Z,13.82
2024-03-20T12:17:15.514Z,13.77
2024-03-20T12:20:13.087Z,13.87
2024-03-20T12:23:10.927Z,13.82
2024-03-20T12:26:08.561Z,13.74
2024-03-20T12:29:05.718Z,13.63
2024-03-20T12:32:03.273Z,13.70
2024-03-20T12:35:01.366Z,13.73
2024-03-20T12:37:58.918Z,14.26
2024-03-20T12:40:56.056Z,14.86
2024-03-20T12:43:53.245Z,15.45
2024-03-20T12:46:50.400Z,15.99
2024-03-20T12:49:50.714Z,16.61
2024-03-20T12:52:47.826Z,17.05
2024-03-20T12:55:45.536Z,17.59
2024-03-20T12:58:42.718Z,17.98
2024-03-20T13:01:40.193Z,18.42
2024-03-20T13:04:37.335Z,18.73
2024-03-20T13:07:34.991Z,19.18
2024-03-20T13:10:32.148Z,19.41
2024-03-20T13:13:29.807Z,19.73
2024-03-20T13:16:26.960Z,19.86
2024-03-20T13:19:28.145Z,20.13
2024-03-20T13:22:26.053Z,20.18
2024-03-20T13:25:24.215Z,20.24
2024-03-20T13:28:21.409Z,20.55
2024-03-20T13:31:19.451Z,20.61
2024-03-20T13:34:16.598Z,20.44
2024-03-20T13:37:17.558Z,20.57
2024-03-20T13:40:37.465Z,20.67
2024-03-20T13:44:02.300Z,21.00
2024-03-20T13:46:59.528Z,21.20
2024-03-20T13:49:57.159Z,21.13
2024-03-20T13:52:54.310Z,21.18
2024-03-20T13:55:53.888Z,21.29
2024-03-20T13:58:52.468Z,21.55
2024-03-20T14:01:50.184Z,21.50
2024-03-20T14:04:47.329Z,21.46
2024-03-20T14:07:44.880Z,21.52
2024-03-20T14:10:42.640Z,21.56
2024-03-20T14:13:39.788Z,21.72
2024-03-20T14:16:37.797Z,21.85
2024-03-20T14:19:34.932Z,22.08
2024-03-20T14:22:32.721Z,22.36
2024-03-20T14:25:30.796Z,22.54
2024-03-20T14:28:29.294Z,22.57
2024-03-20T14:31:26.720Z,22.91
2024-03-20T14:34:24.794Z,22.95
2024-03-20T14:37:23.193Z,22.88
2024-03-20T14:40:24.822Z,23.02
2024-03-20T14:43:21.931Z,23.22
2024-03-20T14:46:21.169Z,23.35
2024-03-20T14:49:19.012Z,23.43
2024-03-20T14:52:17.384Z,23.67
2024-03-20T14:55:14.944Z,23.88
2024-03-20T14:58:13.265Z,24.28
2024-03-20T15:01:10.833Z,24.50
2024-03-20T15:04:08.468Z,24.52
2024-03-20T15:07:06.162Z,24.60
2024-03-20T15:10:03.345Z,24.88
2024-03-20T15:13:00.843Z,24.95
2024-03-20T15:15:58.018Z,24.97
2024-03-20T15:18:56.881Z,25.09
2024-03-20T15:21:53.688Z,25.31
2024-03-20T15:24:50.918Z,25.51
2024-03-20T15:27:49.435Z,25.81
2024-03-20T15:30:46.573Z,26.07
2024-03-20T15:33:44.392Z,26.33
2024-03-20T15:36:41.689Z,26.86
2024-03-20T15:39:39.679Z,26.90
2024-03-20T15:42:36.841Z,27.32
2024-03-20T15:45:34.462Z,27.47
2024-03-20T15:48:32.309Z,27.37
2024-03-20T15:51:31.235Z,27.73
2024-03-20T15:54:30.748Z,27.94
2024-03-20T15:57:29.551Z,28.07
2024-03-20T16:00:26.674Z,28.32
2024-03-20T16:03:24.261Z,28.38
2024-03-20T16:06:21.371Z,28.68
2024-03-20T16:09:19.870Z,28.95
2024-03-20T16:12:18.019Z,29.06
2024-03-20T16:15:19.344Z,29.11
2024-03-20T16:18:18.236Z,29.36
2024-03-20T16:21:16.405Z,29.56
2024-03-20T16:24:13.666Z,29.61
2024-03-20T16:27:11.421Z,29.83
2024-03-20T16:30:09.711Z,30.04
2024-03-20T16:33:09.016Z,30.32
2024-03-20T16:36:06.150Z,30.55
2024-03-20T16:39:03.814Z,30.69
2024-03-20T16:42:01.200Z,30.72
2024-03-20T16:44:58.732Z,30.77
2024-03-20T16:47:56.202Z,30.96
2024-03-20T16:50:54.169Z,31.24
2024-03-20T16:53:51.298Z,31.42
2024-03-20T16:56:52.384Z,31.62
2024-03-20T16:59:51.674Z,31.76
2024-03-20T17:02:49.370Z,31.92
2024-03-20T17:05:47.321Z,32.11
2024-03-20T17:08:44.884Z,32.27
2024-03-20T17:11:42.683Z,32.40
2024-03-20T17:14:42.488Z,32.62
2024-03-20T17:17:39.625Z,32.88
2024-03-20T17:20:37.702Z,33.15
2024-03-20T17:23:35.176Z,33.48
2024-03-20T17:26:32.905Z,33.92
2024-03-20T17:29:30.103Z,34.25
2024-03-20T17:32:27.669Z,34.50
2024-03-20T17:35:24.950Z,34.70
2024-03-20T17:38:22.603Z,35.03
2024-03-20T17:41:19.791Z,35.35
2024-03-20T17:44:17.461Z,35.63
2024-03-20T17:47:15.570Z,35.83
2024-03-20T17:50:12.995Z,36.07
2024-03-20T17:53:10.474Z,36.23
2024-03-20T17:56:09.742Z,36.54
2024-03-20T17:59:09.821Z,36.92
2024-03-20T18:02:07.431Z,37.33
2024-03-20T18:05:06.589Z,37.72
2024-03-20T18:08:04.096Z,38.18
2024-03-20T18:11:01.666Z,38.60
2024-03-20T18:13:59.334Z,39.00
2024-03-20T18:16:56.524Z,39.32
2024-03-20T18:19:54.051Z,39.66
2024-03-20T18:22:52.320Z,39.95
2024-03-20T18:25:49.799Z,40.37
2024-03-20T18:28:47.621Z,40.69
2024-03-20T18:31:47.124Z,41.06
2024-03-20T18:34:45.239Z,41.47
2024-03-20T18:37:42.370Z,41.76
2024-03-20T18:40:39.977Z,42.13
2024-03-20T18:43:37.686Z,42.46
2024-03-20T18:46:35.186Z,42.74
2024-03-20T18:49:32.973Z,43.07
2024-03-20T18:52:30.522Z,43.28
2024-03-20T18:55:28.164Z,43.47
2024-03-20T18:58:26.479Z,43.81
2024-03-20T19:01:25.986Z,44.21
2024-03-20T19:04:23.136Z,44.60
2024-03-20T19:07:20.635Z,44.85
2024-03-20T19:10:17.806Z,44.97
2024-03-20T19:13:15.541Z,45.20
2024-03-20T19:16:13.324Z,45.42
2024-03-20T19:19:11.076Z,45.58
2024-03-20T19:22:09.595Z,45.79
2024-03-20T19:25:07.346Z,45.98
2024-03-20T19:28:04.758Z,46.28
2024-03-20T19:31:03.588Z,46.53
2024-03-20T19:34:01.359Z,46.86
2024-03-20T19:36:58.635Z,47.12
2024-03-20T19:39:56.554Z,47.28
2024-03-20T19:42:57.084Z,47.57
2024-03-20T19:45:55.504Z,47.73
2024-03-20T19:48:53.286Z,47.91
2024-03-20T19:51:51.139Z,48.12
2024-03-20T19:54:49.409Z,48.48
2024-03-20T19:57:48.446Z,48.79
2024-03-20T20:00:46.848Z,49.09
2024-03-20T20:03:46.392Z,49.37
2024-03-20T20:06:43.678Z,49.45
2024-03-20T20:09:42.217Z,49.58
2024-03-20T20:12:40.532Z,49.70
2024-03-20T20:15:41.533Z,49.84
2024-03-20T20:18:40.657Z,50.08
2024-03-20T20:21:38.309Z,50.21
2024-03-20T20:24:35.453Z,50.45
2024-03-20T20:27:33.206Z,50.68
2024-03-20T20:30:30.489Z,50.80
2024-03-20T20:33:28.036Z,50.88
2024-03-20T20:36:25.479Z,51.01
2024-03-20T20:39:24.043Z,51.20
2024-03-20T20:42:21.267Z,51.39
2024-03-20T20:45:18.863Z,51.49
2024-03-20T20:48:16.043Z,51.63
2024-03-20T20:51:13.584Z,51.79
2024-03-20T20:54:10.763Z,51.97
2024-03-20T20:57:08.312Z,52.03
2024-03-20T21:00:08.756Z,52.09
2024-03-20T21:03:23.630Z,52.16
2024-03-20T21:06:39.080Z,52.28
2024-03-20T21:09:53.996Z,52.40
2024-03-20T21:13:09.278Z,52.47
2024-03-20T21:16:24.332Z,52.65
2024-03-20T21:19:39.483Z,52.75
2024-03-20T21:22:37.309Z,52.84
2024-03-20T21:25:35.042Z,52.95
2024-03-20T21:28:32.779Z,53.05
2024-03-20T21:31:31.050Z,53.18
2024-03-20T21:34:28.876Z,53.33
2024-03-20T21:37:26.042Z,53.47
2024-03-20T21:40:31.740Z,53.63
2024-03-20T21:43:28.909Z,53.73
2024-03-20T21:46:26.649Z,53.87
2024-03-20T21:49:24.544Z,53.91
2024-03-20T21:52:22.714Z,54.03
2024-03-20T21:55:20.257Z,54.11
2024-03-20T21:58:17.367Z,54.22
2024-03-20T22:01:16.224Z,54.32
2024-03-20T22:04:13.707Z,54.42
2024-03-20T22:07:11.925Z,54.48
2024-03-20T22:10:23.613Z,54.68
2024-03-20T22:13:22.947Z,54.80
2024-03-20T22:16:20.077Z,54.94
2024-03-20T22:19:17.668Z,55.07
2024-03-20T22:22:14.811Z,55.23
2024-03-20T22:25:12.370Z,55.35
2024-03-20T22:28:09.480Z,55.53
2024-03-20T22:31:06.987Z,55.74
2024-03-20T22:34:04.730Z,55.84
2024-03-20T22:37:02.464Z,55.98
2024-03-20T22:39:59.755Z,56.14
2024-03-20T22:42:57.444Z,56.27
2024-03-20T22:45:54.625Z,56.47
2024-03-20T22:48:52.126Z,56.58
2024-03-20T22:51:49.321Z,56.71
2024-03-20T22:54:46.619Z,56.85
2024-03-20T22:57:43.755Z,56.91
2024-03-20T23:00:48.774Z,56.94
2024-03-20T23:03:46.565Z,57.00
2024-03-20T23:06:43.668Z,57.04
2024-03-20T23:09:41.168Z,57.13
2024-03-20T23:12:38.297Z,57.26
2024-03-20T23:15:37.150Z,57.39
2024-03-20T23:18:34.284Z,57.55
2024-03-20T23:21:31.896Z,57.75
2024-03-20T23:24:29.510Z,57.89
2024-03-20T23:27:26.754Z,57.97
2024-03-20T23:30:24.377Z,58.09
2024-03-20T23:33:21.511Z,58.20
2024-03-20T23:36:19.511Z,58.34
2024-03-20T23:39:17.091Z,58.42
2024-03-20T23:42:14.515Z,58.48
2024-03-20T23:45:12.127Z,58.53
2024-03-20T23:48:09.256Z,58.63
2024-03-20T23:51:07.112Z,58.72
2024-03-20T23:54:04.749Z,58.79
2024-03-20T23:57:02.532Z,58.90
2024-03-20T23:59:59.666Z,59.01
